Numa, Indiana
Current Conditions -  °F | °C
As of 6:53 AM on Tuesday 21 Oct 2014 (Local Time) from KHUF Reporting Station
Overcast Overcast  
Wind Chill: 49°   Ceiling: 5500
Heat Index: 49°   Visibility: 9mi
Dew Point: 46°   Wind: 3mph
Humidity: 90%   Direction: 350°N
Pressure: 30.05"   Gusts: NA
Location:  39.6386°N, 87.3045°W
Report Text: KHUF 211053Z 35003KT 9SM OVC055 09/08 A3005 RMK AO2 SLP174 T00940078
Loading
Personal Weather Stations






























Interactive Weather Map
Tropical Storm Tracking
New forecast layout! Learn more

10-Day Weather Forecast

Advertisements
Track Severe Weather on mobile